Time;durP1;ratioP1;P1;durP2;ratioP2;P2;SDS_P1;SDS_P2;PMS_P1;PMS_P2;Temp;Humidity;BMP_temperature;BMP_pressure;BME280_temperature;BME280_humidity;BME280_pressure;Samples;Min_cycle;Max_cycle;Signal;HPM_P1;HPM_P2
2021/06/21 00:04:29;;;;;;;19.23;12.52;;;22.10;99.90;;;;;;5952671;23;21154;-94
2021/06/21 00:08:12;;;;;;;17.40;12.35;;;21.90;99.90;;;;;;5947476;23;20369;-94
2021/06/21 00:12:03;;;;;;;23.92;12.93;;;21.90;99.90;;;;;;5944011;24;20378;-94
2021/06/21 00:15:52;;;;;;;20.55;12.23;;;21.80;99.90;;;;;;5946822;24;20982;-94
2021/06/21 00:23:34;;;;;;;20.85;12.75;;;21.80;99.90;;;;;;5935988;24;20393;-95
2021/06/21 00:30:58;;;;;;;21.15;12.98;;;21.50;99.90;;;;;;5948213;24;20389;-94
2021/06/21 06:24:14;;;;;;;22.75;17.58;;;22.60;99.90;;;;;;6300264;22;20742;-95
2021/06/21 06:32:41;;;;;;;26.75;17.55;;;22.90;99.90;;;;;;6287432;22;20467;-95
2021/06/21 06:35:14;;;;;;;26.17;17.15;;;22.90;99.90;;;;;;6287756;22;20793;-96
2021/06/21 06:37:46;;;;;;;27.65;17.25;;;23.30;99.90;;;;;;6287805;22;20391;-94
2021/06/21 06:40:16;;;;;;;26.98;14.73;;;23.30;99.90;;;;;;6267569;22;20463;-94
2021/06/21 06:42:44;;;;;;;28.50;14.18;;;23.20;99.90;;;;;;6286383;22;20472;-96
2021/06/21 06:45:14;;;;;;;28.77;15.20;;;23.10;99.90;;;;;;6283633;22;20380;-96
2021/06/21 06:47:43;;;;;;;27.27;12.70;;;23.10;99.90;;;;;;6290071;22;20415;-93
2021/06/21 06:50:17;;;;;;;26.43;12.63;;;23.10;99.90;;;;;;6292868;22;20399;-96
2021/06/21 06:53:41;;;;;;;26.30;11.63;;;23.00;99.90;;;;;;6289164;22;20405;-95
2021/06/21 06:59:09;;;;;;;25.92;11.10;;;22.90;99.90;;;;;;6262000;22;20961;-95
2021/06/21 07:01:36;;;;;;;24.80;11.45;;;22.90;99.90;;;;;;6282936;22;20684;-94
2021/06/21 07:04:58;;;;;;;25.50;11.50;;;23.00;99.90;;;;;;6295129;22;20379;-96
2021/06/21 07:18:40;;;;;;;25.33;12.83;;;22.20;99.90;;;;;;6315649;22;20379;-96
2021/06/21 07:25:15;;;;;;;25.67;12.77;;;22.40;99.90;;;;;;6315510;22;20373;-96
2021/06/21 07:31:50;;;;;;;29.85;12.75;;;22.30;99.90;;;;;;6265831;22;20390;-95
2021/06/21 07:34:18;;;;;;;30.67;12.57;;;22.20;99.90;;;;;;6282307;22;20409;-95
2021/06/21 07:36:45;;;;;;;34.35;13.05;;;22.10;99.90;;;;;;6281828;22;20383;-95
2021/06/21 07:39:12;;;;;;;26.17;12.10;;;22.20;99.90;;;;;;6281260;22;20383;-96
2021/06/21 07:41:40;;;;;;;24.30;12.13;;;22.20;99.90;;;;;;6281455;22;20403;-95
2021/06/21 07:44:12;;;;;;;28.42;13.02;;;22.30;99.90;;;;;;6307334;22;20432;-95
2021/06/21 07:46:39;;;;;;;27.65;12.85;;;22.40;99.90;;;;;;6282390;22;20410;-95
2021/06/21 07:49:06;;;;;;;31.50;13.02;;;22.40;99.90;;;;;;6283081;22;20385;-96
2021/06/21 07:51:33;;;;;;;25.38;13.43;;;22.40;99.90;;;;;;6281526;22;20387;-93
2021/06/21 07:54:01;;;;;;;28.25;12.63;;;22.50;99.90;;;;;;6283730;22;20385;-96
2021/06/21 07:56:31;;;;;;;28.95;13.23;;;22.70;99.90;;;;;;6284332;22;20386;-95
2021/06/21 07:59:04;;;;;;;31.60;13.07;;;22.80;99.90;;;;;;6283188;22;20390;-96
2021/06/21 08:01:59;;;;;;;23.70;11.63;;;22.80;99.90;;;;;;6284659;22;20893;-96
2021/06/21 08:04:28;;;;;;;23.27;11.50;;;22.80;99.90;;;;;;6283727;22;20379;-96
2021/06/21 08:06:56;;;;;;;26.55;11.02;;;22.90;99.90;;;;;;6282057;22;20409;-96
2021/06/21 08:09:26;;;;;;;29.35;11.40;;;22.80;99.90;;;;;;6281705;22;20410;-95
2021/06/21 08:11:53;;;;;;;38.10;11.60;;;22.80;99.90;;;;;;6280524;22;20458;-95
2021/06/21 08:14:20;;;;;;;24.63;11.27;;;22.70;99.90;;;;;;6280534;22;20410;-94
2021/06/21 08:16:47;;;;;;;25.67;10.82;;;22.70;99.90;;;;;;6280304;22;20719;-94
2021/06/21 08:19:15;;;;;;;27.33;11.05;;;22.80;99.90;;;;;;6281221;22;20417;-95
2021/06/21 08:21:42;;;;;;;28.10;10.48;;;22.70;99.90;;;;;;6284079;22;20382;-95
2021/06/21 08:24:14;;;;;;;28.13;9.15;;;22.70;99.90;;;;;;6280952;22;20473;-96
2021/06/21 08:26:41;;;;;;;21.83;9.30;;;22.60;99.90;;;;;;6280965;22;20450;-95
2021/06/21 08:29:09;;;;;;;20.80;8.98;;;22.60;99.90;;;;;;6281580;22;20946;-95
2021/06/21 08:31:36;;;;;;;26.90;8.60;;;22.80;99.90;;;;;;6281228;22;20386;-96
2021/06/21 08:34:03;;;;;;;26.27;8.63;;;22.80;99.90;;;;;;6281477;22;20387;-96
2021/06/21 08:36:30;;;;;;;24.10;8.00;;;22.90;99.90;;;;;;6282443;22;20473;-94
2021/06/21 08:39:00;;;;;;;18.83;8.70;;;22.90;99.90;;;;;;6281953;22;20389;-96
2021/06/21 08:41:27;;;;;;;27.83;8.95;;;23.00;99.90;;;;;;6282012;22;20402;-95
2021/06/21 08:43:55;;;;;;;23.75;8.13;;;23.00;99.90;;;;;;6281467;22;20397;-95
2021/06/21 08:46:22;;;;;;;25.50;8.38;;;23.00;99.90;;;;;;6281863;22;20432;-95
2021/06/21 08:48:55;;;;;;;22.02;8.18;;;23.00;99.90;;;;;;6287860;22;20386;-96
2021/06/21 08:51:26;;;;;;;22.30;7.20;;;23.00;99.90;;;;;;6293349;22;20375;-94
2021/06/21 08:54:16;;;;;;;24.50;7.80;;;23.10;99.90;;;;;;6298078;22;20373;-96
2021/06/21 08:56:44;;;;;;;16.00;7.33;;;23.30;99.90;;;;;;6281739;22;20421;-96
2021/06/21 08:59:11;;;;;;;19.63;7.15;;;23.30;99.90;;;;;;6284823;22;20469;-96
2021/06/21 09:01:40;;;;;;;19.55;7.00;;;23.30;99.90;;;;;;6283645;22;20398;-96
2021/06/21 09:04:12;;;;;;;17.48;7.15;;;23.40;99.90;;;;;;6283557;22;20402;-96
2021/06/21 09:06:45;;;;;;;21.15;7.03;;;23.50;99.90;;;;;;6283794;22;20382;-96
2021/06/21 09:09:33;;;;;;;19.97;6.60;;;23.50;99.90;;;;;;6285084;22;20389;-94
2021/06/21 09:12:01;;;;;;;20.60;6.85;;;23.60;99.90;;;;;;6280491;22;20398;-95
2021/06/21 09:14:40;;;;;;;19.00;6.47;;;23.60;99.90;;;;;;6281922;22;20413;-94
2021/06/21 09:17:10;;;;;;;20.83;7.15;;;23.70;99.90;;;;;;6281527;22;20465;-96
2021/06/21 09:20:12;;;;;;;;;;;;;;;;;;;;;
2021/06/21 09:22:56;;;;;;;17.08;6.60;;;24.00;99.90;;;;;;6212652;22;20386;-96
2021/06/21 09:25:42;;;;;;;18.90;6.80;;;24.00;99.90;;;;;;6288894;22;20532;-96
2021/06/21 09:28:12;;;;;;;19.97;6.47;;;24.20;99.90;;;;;;6285227;22;20850;-96
2021/06/21 09:30:51;;;;;;;19.10;6.60;;;24.30;99.90;;;;;;6283718;22;20418;-96
2021/06/21 09:33:48;;;;;;;20.60;6.38;;;24.40;99.90;;;;;;6311847;22;20390;-96
2021/06/21 09:37:22;;;;;;;18.02;6.20;;;24.50;99.90;;;;;;6290707;22;20386;-96
2021/06/21 09:42:59;;;;;;;17.48;5.90;;;24.80;99.90;;;;;;6308292;22;20383;-96
2021/06/21 09:50:21;;;;;;;24.88;6.13;;;25.00;99.90;;;;;;6147889;22;20393;-96
2021/06/21 09:53:31;;;;;;;19.92;6.38;;;25.00;99.90;;;;;;6297231;22;20397;-96
2021/06/21 10:00:53;;;;;;;19.42;5.68;;;25.10;99.90;;;;;;6284176;22;20536;-96
2021/06/21 10:07:02;;;;;;;20.97;5.57;;;25.50;99.90;;;;;;6187766;23;20385;-95
2021/06/21 10:09:51;;;;;;;17.23;5.97;;;25.50;99.90;;;;;;6164031;23;20385;-96
2021/06/21 10:13:31;;;;;;;24.20;5.70;;;25.50;99.90;;;;;;6167990;23;20472;-96
2021/06/21 10:16:19;;;;;;;18.15;5.20;;;25.60;99.90;;;;;;6171895;23;20461;-96
2021/06/21 10:19:24;;;;;;;18.92;5.03;;;25.70;99.90;;;;;;6184755;23;20460;-96
2021/06/21 10:21:58;;;;;;;20.80;4.97;;;25.70;99.90;;;;;;6140856;23;20419;-95
2021/06/21 10:24:31;;;;;;;15.13;4.10;;;25.30;99.90;;;;;;6139415;23;21003;-96
2021/06/21 10:27:05;;;;;;;17.00;4.47;;;25.20;99.90;;;;;;6139059;23;20523;-96
2021/06/21 10:30:02;;;;;;;;;;;;;;;;;;;;;
2021/06/21 10:36:22;;;;;;;17.95;4.45;;;25.00;99.90;;;;;;6164688;23;20374;-96
2021/06/21 10:40:14;;;;;;;17.10;4.90;;;25.50;99.90;;;;;;6147847;22;20741;-96
2021/06/21 10:42:54;;;;;;;21.07;5.23;;;25.50;99.90;;;;;;6280530;22;20372;-96
2021/06/21 10:45:51;;;;;;;21.30;4.97;;;25.70;99.90;;;;;;6264574;22;20789;-96
2021/06/21 10:48:21;;;;;;;18.63;4.78;;;25.90;99.90;;;;;;6259003;22;20384;-95
2021/06/21 10:50:52;;;;;;;12.60;4.30;;;26.00;99.90;;;;;;6252200;22;20783;-96
2021/06/21 10:53:29;;;;;;;18.15;4.15;;;25.90;99.90;;;;;;6251604;22;20384;-96
2021/06/21 10:56:09;;;;;;;15.93;4.10;;;26.00;99.90;;;;;;6257856;22;20848;-96
2021/06/21 10:59:10;;;;;;;18.97;4.20;;;26.10;99.90;;;;;;6255370;22;20381;-96
2021/06/21 11:02:34;;;;;;;17.93;4.60;;;26.10;99.90;;;;;;6265025;22;20856;-96
2021/06/21 11:05:45;;;;;;;14.30;4.30;;;26.10;99.90;;;;;;6165741;23;20391;-96
2021/06/21 11:08:59;;;;;;;12.85;4.18;;;26.20;99.90;;;;;;6136405;23;20389;-96
2021/06/21 11:11:43;;;;;;;16.07;3.97;;;26.40;99.90;;;;;;6100981;23;20379;-96
2021/06/21 11:14:47;;;;;;;15.63;3.72;;;26.40;99.90;;;;;;6139181;23;20888;-96
2021/06/21 11:17:50;;;;;;;16.88;4.03;;;26.60;99.90;;;;;;6107724;23;20397;-96
2021/06/21 11:25:31;;;;;;;17.08;4.07;;;26.70;99.90;;;;;;5969544;24;20408;-95
2021/06/21 11:28:38;;;;;;;19.45;4.13;;;27.20;99.90;;;;;;5838076;24;20400;-96
2021/06/21 11:38:38;;;;;;;21.67;4.47;;;27.60;99.20;;;;;;6321312;22;22075;-96
2021/06/21 11:41:34;;;;;;;13.25;3.55;;;27.70;97.50;;;;;;6297252;22;20489;-96
2021/06/21 11:44:02;;;;;;;12.83;3.30;;;27.80;98.40;;;;;;6307842;22;20951;-94
2021/06/21 11:46:36;;;;;;;14.02;3.80;;;28.10;99.10;;;;;;6306867;22;20390;-95
2021/06/21 11:49:16;;;;;;;14.23;4.30;;;28.30;97.60;;;;;;6281779;22;20444;-94
2021/06/21 11:52:04;;;;;;;16.88;4.07;;;28.40;96.80;;;;;;6307936;22;20379;-95
2021/06/21 11:54:39;;;;;;;19.40;4.28;;;28.50;97.60;;;;;;6307851;22;20454;-95
2021/06/21 11:57:07;;;;;;;15.25;3.90;;;28.70;97.10;;;;;;6307265;22;20363;-94
2021/06/21 11:59:46;;;;;;;15.57;3.78;;;28.90;95.90;;;;;;6306976;22;20703;-93
2021/06/21 12:02:14;;;;;;;15.25;4.03;;;29.20;96.20;;;;;;6306576;22;20472;-95
2021/06/21 12:04:43;;;;;;;19.88;4.22;;;29.20;96.50;;;;;;6282284;22;20416;-94
2021/06/21 12:07:31;;;;;;;17.40;3.85;;;29.50;95.30;;;;;;6306985;22;20383;-96
2021/06/21 12:10:00;;;;;;;18.58;4.20;;;29.80;96.00;;;;;;6306192;22;20406;-94
2021/06/21 12:12:32;;;;;;;15.45;4.13;;;30.10;95.50;;;;;;6306096;22;20382;-94
2021/06/21 12:15:00;;;;;;;18.65;4.43;;;30.60;93.80;;;;;;6281349;22;20442;-95
2021/06/21 12:17:29;;;;;;;16.48;4.10;;;30.30;93.70;;;;;;6307281;22;20387;-95
2021/06/21 12:20:18;;;;;;;15.05;3.97;;;30.50;94.10;;;;;;6306492;22;20378;-95
2021/06/21 12:23:02;;;;;;;13.80;3.72;;;30.40;92.60;;;;;;6281604;22;20448;-95
2021/06/21 12:25:45;;;;;;;17.77;4.22;;;30.60;93.20;;;;;;6280645;22;20385;-96
2021/06/21 12:28:24;;;;;;;13.60;4.65;;;30.90;93.70;;;;;;6281161;22;20391;-95
2021/06/21 12:30:58;;;;;;;17.63;4.38;;;31.20;93.00;;;;;;6281206;22;20517;-95
2021/06/21 12:33:33;;;;;;;21.30;4.53;;;31.60;92.30;;;;;;6281214;22;20392;-94
2021/06/21 12:36:01;;;;;;;18.13;4.07;;;31.60;88.60;;;;;;6281775;22;20920;-95
2021/06/21 12:38:29;;;;;;;25.73;5.22;;;31.30;90.20;;;;;;6282527;22;20386;-96
2021/06/21 12:40:56;;;;;;;19.77;4.45;;;31.30;89.40;;;;;;6267358;22;20404;-94
2021/06/21 12:43:24;;;;;;;24.05;4.47;;;31.40;91.50;;;;;;6250170;22;20438;-96
2021/06/21 12:45:52;;;;;;;14.37;4.00;;;31.70;90.80;;;;;;6249987;22;20762;-95
2021/06/21 12:48:19;;;;;;;18.58;4.28;;;32.10;90.20;;;;;;6250605;22;20381;-95
2021/06/21 12:50:48;;;;;;;21.42;4.03;;;32.60;84.00;;;;;;6251397;22;20387;-95
2021/06/21 12:53:16;;;;;;;25.77;5.05;;;32.40;82.90;;;;;;6250868;22;20408;-96
2021/06/21 12:55:43;;;;;;;26.20;4.38;;;32.20;83.30;;;;;;6250962;22;20380;-96
2021/06/21 12:58:10;;;;;;;21.92;4.70;;;32.60;81.80;;;;;;6251412;22;20416;-96
2021/06/21 13:00:46;;;;;;;21.88;4.57;;;32.80;83.20;;;;;;6251047;22;20396;-95
2021/06/21 13:03:19;;;;;;;21.65;4.68;;;33.10;81.20;;;;;;6250300;22;20467;-95
2021/06/21 13:05:49;;;;;;;31.67;4.78;;;33.30;84.90;;;;;;6250997;22;20471;-95
2021/06/21 13:08:33;;;;;;;18.55;4.43;;;33.80;79.30;;;;;;6251936;22;20364;-93
2021/06/21 13:11:10;;;;;;;20.42;4.38;;;33.60;77.60;;;;;;6252581;22;20384;-95
2021/06/21 13:13:50;;;;;;;26.90;4.55;;;33.70;81.60;;;;;;6253907;22;20380;-95
2021/06/21 13:16:21;;;;;;;18.40;4.53;;;34.10;75.00;;;;;;6254284;22;20465;-96
2021/06/21 13:18:50;;;;;;;22.45;4.90;;;34.10;78.20;;;;;;6251026;22;20391;-94
2021/06/21 13:21:36;;;;;;;23.88;4.70;;;34.30;75.60;;;;;;6251172;22;20424;-94
2021/06/21 13:24:03;;;;;;;17.57;4.40;;;34.20;75.80;;;;;;6250890;22;20392;-94
2021/06/21 13:26:45;;;;;;;20.13;5.05;;;34.30;73.50;;;;;;6251241;22;20384;-95
2021/06/21 13:29:28;;;;;;;30.42;4.82;;;34.30;74.20;;;;;;6254163;22;20471;-96
2021/06/21 13:32:00;;;;;;;28.08;5.55;;;34.00;69.90;;;;;;6252984;22;20386;-95
2021/06/21 13:34:48;;;;;;;23.52;5.43;;;34.00;73.90;;;;;;6254715;22;20394;-96
2021/06/21 13:37:35;;;;;;;25.65;5.13;;;34.10;71.70;;;;;;6255525;22;20403;-95
2021/06/21 13:40:10;;;;;;;27.60;5.13;;;33.80;67.10;;;;;;6255169;22;20384;-94
2021/06/21 13:42:49;;;;;;;22.52;4.72;;;33.70;72.30;;;;;;6289671;22;20452;-96
2021/06/21 13:45:23;;;;;;;32.60;5.20;;;34.00;68.80;;;;;;6283907;22;20393;-94
2021/06/21 13:48:11;;;;;;;21.33;4.80;;;34.20;71.50;;;;;;6286183;22;20930;-96
2021/06/21 13:50:46;;;;;;;24.00;4.93;;;34.50;69.80;;;;;;6312576;22;20386;-95
2021/06/21 13:53:31;;;;;;;29.00;5.03;;;34.40;66.70;;;;;;6287754;22;20389;-95
2021/06/21 13:56:09;;;;;;;30.15;5.25;;;34.50;66.50;;;;;;6286986;22;20390;-96
2021/06/21 13:58:59;;;;;;;30.85;4.70;;;34.80;66.60;;;;;;6287634;22;20390;-95
2021/06/21 14:01:33;;;;;;;24.07;4.70;;;35.00;66.70;;;;;;6284027;22;20925;-96
2021/06/21 14:04:11;;;;;;;23.73;5.07;;;35.10;63.30;;;;;;6287427;22;20735;-96
2021/06/21 14:06:41;;;;;;;35.25;5.30;;;35.10;63.80;;;;;;6284661;22;20394;-96
2021/06/21 14:09:17;;;;;;;26.75;5.00;;;35.00;65.70;;;;;;6287372;22;20414;-96
2021/06/21 14:11:56;;;;;;;29.38;5.45;;;35.10;64.10;;;;;;6285711;22;20432;-96
2021/06/21 14:14:32;;;;;;;32.00;5.72;;;35.40;61.30;;;;;;6288638;22;20406;-95
2021/06/21 14:17:00;;;;;;;33.53;5.25;;;35.30;62.20;;;;;;6285516;22;20405;-96
2021/06/21 14:19:28;;;;;;;32.58;5.00;;;35.40;62.70;;;;;;6284718;22;20378;-96
2021/06/21 14:21:55;;;;;;;31.77;5.57;;;35.70;63.00;;;;;;6283146;22;20395;-95
2021/06/21 14:24:22;;;;;;;38.85;5.85;;;35.70;62.90;;;;;;6284067;22;20438;-94
2021/06/21 14:26:54;;;;;;;28.63;6.00;;;35.50;62.10;;;;;;6283416;22;20383;-96
2021/06/21 14:29:22;;;;;;;31.98;6.28;;;35.70;63.50;;;;;;6283621;22;20847;-96
2021/06/21 14:31:50;;;;;;;30.50;6.03;;;35.70;62.40;;;;;;6289888;22;20406;-96
2021/06/21 14:34:45;;;;;;;28.38;6.20;;;35.90;61.80;;;;;;6292791;22;20374;-96
2021/06/21 14:37:12;;;;;;;33.25;5.85;;;36.10;62.40;;;;;;6286621;22;20413;-95
2021/06/21 14:39:43;;;;;;;31.45;5.97;;;35.50;62.40;;;;;;6285340;22;20383;-96
2021/06/21 14:42:14;;;;;;;20.83;5.30;;;35.40;63.80;;;;;;6286291;22;20401;-96
2021/06/21 14:44:41;;;;;;;27.55;5.75;;;35.10;64.00;;;;;;6283452;22;20379;-96
2021/06/21 14:47:11;;;;;;;35.37;6.10;;;35.30;63.00;;;;;;6284249;22;20386;-96
2021/06/21 14:49:42;;;;;;;29.33;5.93;;;35.30;62.60;;;;;;6287787;22;20394;-96
2021/06/21 14:52:09;;;;;;;28.33;5.18;;;35.20;63.50;;;;;;6283841;22;20487;-95
2021/06/21 14:54:36;;;;;;;28.75;5.85;;;34.90;62.10;;;;;;6282071;22;20402;-95
2021/06/21 14:57:04;;;;;;;31.63;5.30;;;34.60;61.50;;;;;;6282215;22;20386;-95
2021/06/21 14:59:31;;;;;;;33.58;5.80;;;34.20;62.40;;;;;;6282080;22;20417;-94
2021/06/21 15:02:03;;;;;;;33.03;6.17;;;33.90;62.00;;;;;;6283975;22;20794;-95
2021/06/21 15:04:30;;;;;;;26.00;6.40;;;33.40;64.70;;;;;;6283112;22;20458;-96
2021/06/21 15:06:57;;;;;;;31.20;6.45;;;33.50;63.80;;;;;;6283335;22;20410;-95
2021/06/21 15:09:24;;;;;;;39.60;6.60;;;33.50;63.80;;;;;;6282097;22;20385;-95
2021/06/21 15:11:55;;;;;;;27.70;6.60;;;33.40;65.30;;;;;;6283230;22;20473;-94
2021/06/21 15:14:22;;;;;;;26.37;6.90;;;33.50;64.80;;;;;;6283184;22;20461;-96
2021/06/21 15:16:55;;;;;;;27.70;6.40;;;33.90;65.90;;;;;;6283993;22;20383;-96
2021/06/21 15:19:28;;;;;;;28.42;6.25;;;33.80;63.00;;;;;;6283994;22;21688;-96
2021/06/21 15:22:01;;;;;;;24.45;6.72;;;34.40;63.60;;;;;;6284498;22;20398;-96
2021/06/21 15:24:35;;;;;;;28.25;6.50;;;34.20;62.70;;;;;;6285577;22;20469;-96
2021/06/21 15:27:02;;;;;;;27.05;6.40;;;34.30;64.10;;;;;;6284812;22;20385;-94
2021/06/21 15:29:30;;;;;;;24.38;5.80;;;34.40;64.80;;;;;;6282866;22;20389;-95
2021/06/21 15:31:57;;;;;;;24.90;6.43;;;34.30;62.10;;;;;;6282187;22;20380;-95
2021/06/21 15:34:24;;;;;;;25.50;6.25;;;34.30;64.80;;;;;;6281447;22;20394;-94
2021/06/21 15:36:51;;;;;;;27.27;6.33;;;34.50;66.00;;;;;;6282939;22;20369;-94
2021/06/21 15:39:18;;;;;;;28.23;6.45;;;34.70;62.70;;;;;;6281424;22;20386;-94
2021/06/21 15:41:47;;;;;;;25.67;5.67;;;34.80;64.90;;;;;;6281641;22;20414;-95
2021/06/21 15:44:14;;;;;;;24.80;6.30;;;35.20;62.30;;;;;;6283570;22;20379;-94
2021/06/21 15:46:41;;;;;;;28.55;6.40;;;35.40;63.00;;;;;;6281912;22;20746;-95
2021/06/21 15:49:08;;;;;;;29.50;5.75;;;35.30;61.00;;;;;;6281810;22;20382;-94
2021/06/21 15:51:35;;;;;;;28.55;6.50;;;35.20;61.80;;;;;;6281202;22;20382;-95
2021/06/21 15:54:04;;;;;;;24.10;5.90;;;35.20;62.00;;;;;;6280795;22;20386;-94
2021/06/21 15:56:31;;;;;;;43.72;6.97;;;35.20;59.70;;;;;;6284655;22;20391;-95
2021/06/21 17:58:01;;;;;;;31.45;6.13;;;25.70;79.20;;;;;;6303210;22;20388;-94
2021/06/21 18:01:00;;;;;;;44.20;7.30;;;25.30;83.80;;;;;;6315931;22;20382;-96
2021/06/21 18:04:39;;;;;;;;;;;;;;;;;;;;;
2021/06/21 18:08:06;;;;;;;;;;;;;;;;;;;;;
2021/06/21 18:11:01;;;;;;;35.95;5.97;;;24.90;83.30;;;;;;5830788;24;20441;-96
2021/06/21 18:17:28;;;;;;;70.97;8.55;;;24.60;88.90;;;;;;5821882;24;20855;-96
2021/06/21 18:20:11;;;;;;;38.37;6.33;;;24.40;87.50;;;;;;5819380;24;20817;-96
2021/06/21 18:22:37;;;;;;;22.65;5.40;;;24.20;86.90;;;;;;5800417;24;20442;-95
2021/06/21 18:25:06;;;;;;;32.05;6.05;;;24.00;88.80;;;;;;5800708;24;20396;-95
2021/06/21 18:27:47;;;;;;;63.58;8.02;;;23.90;90.70;;;;;;5818559;24;20410;-94
2021/06/21 18:30:20;;;;;;;39.28;6.68;;;23.70;90.50;;;;;;5806426;24;20399;-96
2021/06/21 18:32:55;;;;;;;38.83;6.35;;;23.50;90.50;;;;;;5785623;24;20454;-96
2021/06/21 18:35:25;;;;;;;28.00;5.57;;;23.40;90.40;;;;;;5806495;24;20411;-96
2021/06/21 18:37:57;;;;;;;30.75;5.35;;;23.20;91.40;;;;;;5830855;24;20391;-96
2021/06/21 18:40:30;;;;;;;30.10;5.55;;;23.00;92.20;;;;;;5846588;24;20382;-96
2021/06/21 18:43:35;;;;;;;26.08;5.70;;;22.80;92.50;;;;;;5883484;24;20426;-96
2021/06/21 18:46:37;;;;;;;28.67;5.27;;;22.60;92.70;;;;;;5858168;24;20392;-96
2021/06/21 18:50:17;;;;;;;35.67;6.28;;;22.40;93.80;;;;;;5909324;24;20400;-95
2021/06/21 18:53:34;;;;;;;28.52;5.93;;;22.20;94.90;;;;;;6003452;23;20466;-96
2021/06/21 18:56:29;;;;;;;25.08;5.65;;;22.20;95.30;;;;;;6043896;23;20413;-96
2021/06/21 18:59:14;;;;;;;32.30;6.03;;;22.10;95.30;;;;;;6024469;23;20398;-95
2021/06/21 19:02:10;;;;;;;27.67;5.68;;;22.10;96.10;;;;;;6046016;23;20413;-95
2021/06/21 19:04:43;;;;;;;34.97;6.10;;;22.00;96.10;;;;;;6007695;23;20471;-95
2021/06/21 19:07:37;;;;;;;29.45;5.68;;;22.10;96.90;;;;;;6054529;23;20376;-96
2021/06/21 19:10:28;;;;;;;37.40;6.40;;;22.00;96.70;;;;;;6031664;23;20407;-96
2021/06/21 19:13:04;;;;;;;31.40;5.97;;;22.10;97.00;;;;;;6072376;23;20907;-96
2021/06/21 19:15:37;;;;;;;34.30;5.93;;;22.00;97.80;;;;;;6129116;23;20954;-96
2021/06/21 19:18:14;;;;;;;27.05;5.88;;;22.00;97.80;;;;;;6107304;23;20381;-95
2021/06/21 19:21:09;;;;;;;32.15;6.57;;;22.10;98.70;;;;;;6134967;23;20381;-96
2021/06/21 19:23:46;;;;;;;31.55;6.72;;;22.00;99.30;;;;;;6140229;23;20397;-96
2021/06/21 19:26:23;;;;;;;29.13;5.57;;;22.00;99.10;;;;;;6139477;23;20389;-96
2021/06/21 19:29:12;;;;;;;36.60;7.00;;;21.90;99.90;;;;;;6140828;23;20392;-96
2021/06/21 19:32:18;;;;;;;58.30;8.40;;;22.00;99.60;;;;;;6124579;23;20436;-96
2021/06/21 19:52:37;;;;;;;33.33;7.35;;;22.20;99.90;;;;;;6279759;22;20439;-96
2021/06/21 19:55:19;;;;;;;35.85;6.97;;;22.40;99.90;;;;;;6256251;22;20848;-96
2021/06/21 19:57:50;;;;;;;29.23;7.05;;;22.50;99.90;;;;;;6283186;22;20452;-96
2021/06/21 20:00:23;;;;;;;29.83;7.45;;;22.70;99.90;;;;;;6277036;22;20391;-96
2021/06/21 20:02:57;;;;;;;30.00;7.35;;;22.60;99.90;;;;;;6277263;22;20480;-94
2021/06/21 20:05:27;;;;;;;41.97;8.23;;;22.60;99.90;;;;;;6277074;22;20414;-96
2021/06/21 20:07:57;;;;;;;32.85;8.52;;;22.40;99.90;;;;;;6281808;22;20454;-96
2021/06/21 20:10:31;;;;;;;33.95;8.57;;;22.10;99.90;;;;;;6280186;22;20391;-96
2021/06/21 20:13:01;;;;;;;32.20;8.57;;;21.70;99.90;;;;;;6232801;22;20415;-96
2021/06/21 20:15:33;;;;;;;29.65;8.25;;;21.30;99.90;;;;;;6284723;22;20434;-96
2021/06/21 20:18:17;;;;;;;34.85;7.90;;;20.80;99.90;;;;;;6286549;22;20380;-96
2021/06/21 20:21:50;;;;;;;36.28;8.35;;;20.50;99.90;;;;;;6282569;22;20461;-96
2021/06/21 20:24:44;;;;;;;32.05;8.27;;;20.10;99.90;;;;;;6253738;22;20376;-96
2021/06/21 20:27:15;;;;;;;31.55;8.30;;;19.70;99.90;;;;;;6252680;22;20882;-96
2021/06/21 20:29:59;;;;;;;32.58;8.40;;;19.40;99.90;;;;;;6256137;22;20381;-96
2021/06/21 20:32:29;;;;;;;31.20;7.97;;;19.20;99.90;;;;;;6254682;22;20393;-96
2021/06/21 20:35:44;;;;;;;33.13;8.40;;;19.00;99.90;;;;;;6262184;22;20384;-96
2021/06/21 20:38:18;;;;;;;27.38;7.95;;;18.70;99.90;;;;;;6257114;22;20384;-96
2021/06/21 20:40:46;;;;;;;29.20;7.28;;;18.70;99.90;;;;;;6253384;22;20912;-95
2021/06/21 20:43:13;;;;;;;28.48;7.57;;;18.70;99.90;;;;;;6251036;22;20396;-96
2021/06/21 20:45:41;;;;;;;35.63;7.88;;;18.80;99.90;;;;;;6250970;22;20464;-96
2021/06/21 20:48:11;;;;;;;29.17;7.77;;;18.80;99.90;;;;;;6250960;22;20388;-96
2021/06/21 20:50:39;;;;;;;27.75;7.28;;;18.90;99.90;;;;;;6250255;22;20754;-96
2021/06/21 20:53:07;;;;;;;34.47;7.78;;;18.70;99.90;;;;;;6249951;22;20386;-95
2021/06/21 20:55:38;;;;;;;35.33;6.82;;;18.80;99.90;;;;;;6253702;22;20471;-96
2021/06/21 20:58:07;;;;;;;34.90;8.07;;;18.90;99.90;;;;;;6251747;22;20412;-96
2021/06/21 21:00:39;;;;;;;35.60;8.07;;;19.00;99.90;;;;;;6252427;22;20383;-96
2021/06/21 21:03:07;;;;;;;31.30;8.00;;;18.90;99.90;;;;;;6275968;22;20442;-95
2021/06/21 21:05:37;;;;;;;30.92;8.02;;;18.90;99.90;;;;;;6250911;22;20380;-96
2021/06/21 21:08:05;;;;;;;27.58;7.47;;;18.90;99.90;;;;;;6250612;22;20390;-96
2021/06/21 21:10:32;;;;;;;32.83;8.27;;;19.00;99.90;;;;;;6251339;22;20784;-95
2021/06/21 21:12:59;;;;;;;37.80;8.77;;;19.00;99.90;;;;;;6250025;22;20410;-94
2021/06/21 21:15:26;;;;;;;39.70;9.18;;;19.10;99.90;;;;;;6249991;22;20384;-94
2021/06/21 21:17:54;;;;;;;38.72;9.50;;;19.00;99.90;;;;;;6251410;22;20388;-95
2021/06/21 21:20:21;;;;;;;36.25;9.02;;;18.90;99.90;;;;;;6249893;22;20434;-95
2021/06/21 21:22:49;;;;;;;35.85;8.77;;;18.90;99.90;;;;;;6249993;22;20395;-95
2021/06/21 21:25:24;;;;;;;42.08;9.23;;;18.90;99.90;;;;;;6249658;22;20380;-94
2021/06/21 21:27:56;;;;;;;38.67;9.32;;;18.90;99.90;;;;;;6250020;22;20395;-95
2021/06/21 21:30:23;;;;;;;36.40;9.27;;;18.90;99.90;;;;;;6254104;22;20380;-93
2021/06/21 21:32:51;;;;;;;36.20;9.52;;;18.90;99.90;;;;;;6255328;22;20388;-95
2021/06/21 21:35:18;;;;;;;39.78;10.45;;;19.00;99.90;;;;;;6252341;22;20387;-95
2021/06/21 21:37:46;;;;;;;41.60;9.93;;;18.90;99.90;;;;;;6250230;22;20408;-96
2021/06/21 21:40:15;;;;;;;35.83;10.70;;;18.80;99.90;;;;;;6249748;22;20711;-95
2021/06/21 21:42:43;;;;;;;33.95;11.27;;;18.80;99.90;;;;;;6249422;22;20400;-94
2021/06/21 21:45:11;;;;;;;33.05;13.38;;;18.80;99.90;;;;;;6250716;22;20380;-95
2021/06/21 21:47:39;;;;;;;35.90;13.52;;;18.80;99.90;;;;;;6249924;22;20384;-95
2021/06/21 21:50:10;;;;;;;36.20;14.70;;;18.80;99.90;;;;;;6244524;23;20381;-96
2021/06/21 21:52:42;;;;;;;37.45;15.30;;;18.80;99.90;;;;;;6247340;23;20398;-95
2021/06/21 21:55:26;;;;;;;39.90;15.57;;;18.90;99.90;;;;;;6246057;23;20409;-95
2021/06/21 21:58:05;;;;;;;33.50;15.57;;;18.90;99.90;;;;;;6246540;23;20410;-96
2021/06/21 22:00:39;;;;;;;35.43;15.90;;;18.90;99.90;;;;;;6246341;23;20465;-95
2021/06/21 22:03:07;;;;;;;32.90;15.20;;;19.10;99.90;;;;;;6246906;23;20489;-95
2021/06/21 22:05:35;;;;;;;39.03;14.90;;;19.10;99.90;;;;;;6246918;23;20388;-95
2021/06/21 22:08:02;;;;;;;28.63;14.50;;;19.30;99.90;;;;;;6246518;23;20369;-95
2021/06/21 22:10:29;;;;;;;37.25;15.07;;;19.30;99.90;;;;;;6246794;23;20371;-95
2021/06/21 22:12:57;;;;;;;31.17;14.03;;;19.40;99.90;;;;;;6246133;23;20395;-95
2021/06/21 22:15:24;;;;;;;31.63;14.30;;;19.30;99.90;;;;;;6246731;23;20386;-93
2021/06/21 22:17:53;;;;;;;34.27;15.33;;;19.30;99.90;;;;;;6246172;23;20443;-94
2021/06/21 22:20:22;;;;;;;34.75;15.63;;;19.30;99.90;;;;;;6246370;23;20386;-94
2021/06/21 22:22:49;;;;;;;33.17;15.32;;;19.20;99.90;;;;;;6246307;23;20389;-95
2021/06/21 22:25:17;;;;;;;35.10;16.10;;;19.20;99.90;;;;;;6245918;23;20381;-95
2021/06/21 22:27:46;;;;;;;35.05;16.30;;;19.20;99.90;;;;;;6246390;23;20388;-96
2021/06/21 22:30:15;;;;;;;36.28;16.98;;;19.10;99.90;;;;;;6246187;23;20390;-95
2021/06/21 22:32:43;;;;;;;34.70;17.97;;;19.00;99.90;;;;;;6246859;23;20374;-94
2021/06/21 22:35:11;;;;;;;34.75;17.38;;;19.00;99.90;;;;;;6246254;23;20389;-93
2021/06/21 22:37:39;;;;;;;36.33;17.65;;;19.00;99.90;;;;;;6247198;23;20398;-95
2021/06/21 22:40:07;;;;;;;41.35;18.02;;;18.90;99.90;;;;;;6245640;23;20382;-94
2021/06/21 22:42:34;;;;;;;34.03;18.07;;;19.00;99.90;;;;;;6245238;23;20390;-95
2021/06/21 22:45:02;;;;;;;33.10;18.00;;;19.00;99.90;;;;;;6246057;23;20478;-95
2021/06/21 22:47:29;;;;;;;36.83;18.23;;;19.10;99.90;;;;;;6246764;23;20727;-95
2021/06/21 22:49:57;;;;;;;35.47;18.27;;;19.20;99.90;;;;;;6238687;23;20396;-96
2021/06/21 22:52:24;;;;;;;35.72;17.75;;;19.20;99.90;;;;;;6190671;23;20864;-96
2021/06/21 22:54:51;;;;;;;35.35;18.65;;;19.20;99.90;;;;;;6190640;23;20384;-96